createdAt,value
2019-03-27T00:00:03.077Z,1032.27
2019-03-27T00:05:02.609Z,1032.3
2019-03-27T00:10:03.057Z,1032.32
2019-03-27T00:15:12.856Z,1032.29
2019-03-27T00:20:03.139Z,1032.29
2019-03-27T00:25:02.540Z,1032.3
2019-03-27T00:30:02.871Z,1032.33
2019-03-27T00:35:03.229Z,1032.33
2019-03-27T00:40:02.640Z,1032.25
2019-03-27T00:45:02.975Z,1032.23
2019-03-27T00:50:03.320Z,1032.3
2019-03-27T00:55:02.727Z,1032.33
2019-03-27T01:00:03.075Z,1032.27
2019-03-27T01:05:02.704Z,1032.27
2019-03-27T01:10:03.146Z,1032.32
2019-03-27T01:15:02.473Z,1032.36
2019-03-27T01:20:02.102Z,1032.37
2019-03-27T01:25:02.520Z,1032.29
2019-03-27T01:30:02.840Z,1032.24
2019-03-27T01:35:03.210Z,1032.19
2019-03-27T01:40:02.620Z,1032.22
2019-03-27T01:45:02.972Z,1032.15
2019-03-27T01:50:02.384Z,1032.12
2019-03-27T01:55:02.737Z,1032.12
2019-03-27T02:00:03.071Z,1032.25
2019-03-27T02:05:02.488Z,1032.21
2019-03-27T02:10:02.870Z,1032.14
2019-03-27T02:15:03.272Z,1032.04
2019-03-27T02:20:02.687Z,1032.06
2019-03-27T02:25:03.027Z,1032.08
2019-03-27T02:30:02.457Z,1032.12
2019-03-27T02:35:02.800Z,1032.04
2019-03-27T02:40:03.246Z,1032.06
2019-03-27T02:45:02.559Z,1032.19
2019-03-27T02:50:02.998Z,1032.12
2019-03-27T02:55:02.337Z,1032.16
2019-03-27T03:00:02.751Z,1032.05
2019-03-27T03:05:03.111Z,1032.12
2019-03-27T03:10:02.514Z,1032.17
2019-03-27T03:15:02.867Z,1032.17
2019-03-27T03:20:03.298Z,1032.24
2019-03-27T03:25:02.723Z,1032.23
2019-03-27T03:30:03.116Z,1032.25
2019-03-27T03:35:02.489Z,1032.24
2019-03-27T03:40:02.938Z,1032.29
2019-03-27T03:45:03.264Z,1032.24
2019-03-27T03:50:02.680Z,1032.26
2019-03-27T03:55:02.270Z,1032.41
2019-03-27T04:00:02.619Z,1032.42
2019-03-27T04:05:02.992Z,1032.45
2019-03-27T04:10:02.445Z,1032.45
2019-03-27T04:15:02.856Z,1032.47
2019-03-27T04:20:03.307Z,1032.57
2019-03-27T04:25:02.723Z,1032.54
2019-03-27T04:30:03.163Z,1032.65
2019-03-27T04:35:02.574Z,1032.75
2019-03-27T04:40:03.025Z,1032.73
2019-03-27T04:45:02.371Z,1032.73
2019-03-27T04:50:02.781Z,1032.69
2019-03-27T04:55:03.130Z,1032.69
2019-03-27T05:00:02.537Z,1032.66
2019-03-27T05:05:02.865Z,1032.66
2019-03-27T05:10:03.321Z,1032.66
2019-03-27T05:15:02.746Z,1032.68
2019-03-27T05:20:03.089Z,1032.67
2019-03-27T05:25:02.493Z,1032.84
2019-03-27T05:30:02.336Z,1032.94
2019-03-27T05:35:02.787Z,1032.91
2019-03-27T05:40:03.225Z,1032.97
2019-03-27T05:45:02.653Z,1032.99
2019-03-27T05:50:03.089Z,1033.03
2019-03-27T05:55:02.506Z,1032.97
2019-03-27T06:00:02.857Z,1033.03
2019-03-27T06:05:03.285Z,1033.1
2019-03-27T06:10:02.710Z,1033.2
2019-03-27T06:15:03.050Z,1033.23
2019-03-27T06:20:02.672Z,1033.3
2019-03-27T06:25:03.030Z,1033.38
2019-03-27T06:30:02.376Z,1033.43
2019-03-27T06:35:02.789Z,1033.41
2019-03-27T06:40:03.224Z,1033.37
2019-03-27T06:45:01.786Z,1033.41
2019-03-27T06:50:03.177Z,1033.36
2019-03-27T06:55:02.512Z,1033.33
2019-03-27T07:00:03.251Z,1033.31
2019-03-27T07:05:02.574Z,1033.34
2019-03-27T07:10:03.124Z,1033.32
2019-03-27T07:15:02.522Z,1033.33
2019-03-27T07:20:02.859Z,1033.37
2019-03-27T07:25:03.211Z,1033.38
2019-03-27T07:30:02.638Z,1033.44
2019-03-27T07:35:02.977Z,1033.46
2019-03-27T07:40:02.406Z,1033.57
2019-03-27T07:45:02.831Z,1033.55
2019-03-27T07:50:03.176Z,1033.54
2019-03-27T07:55:02.595Z,1033.53
2019-03-27T08:00:03.039Z,1033.59
2019-03-27T08:05:02.566Z,1033.62
2019-03-27T08:10:03.010Z,1033.63
2019-03-27T08:15:02.434Z,1033.76
2019-03-27T08:20:02.970Z,1033.73
2019-03-27T08:25:02.382Z,1033.58
2019-03-27T08:30:02.823Z,1033.6
2019-03-27T08:35:03.173Z,1033.63
2019-03-27T08:40:02.563Z,1033.71
2019-03-27T08:45:02.931Z,1033.68
2019-03-27T08:50:03.272Z,1033.66
2019-03-27T08:55:02.701Z,1033.64
2019-03-27T09:00:03.149Z,1033.58
2019-03-27T09:05:02.553Z,1033.61
2019-03-27T09:10:02.999Z,1033.55
2019-03-27T09:15:02.417Z,1033.58
2019-03-27T09:20:02.863Z,1033.71
2019-03-27T09:25:02.393Z,1033.73
2019-03-27T09:30:02.816Z,1033.76
2019-03-27T09:35:03.160Z,1033.76
2019-03-27T09:40:02.574Z,1033.84
2019-03-27T09:45:02.923Z,1033.92
2019-03-27T09:50:03.279Z,1033.88
2019-03-27T09:55:02.678Z,1033.83
2019-03-27T10:00:03.024Z,1033.91
2019-03-27T10:05:02.471Z,1033.96
2019-03-27T10:10:02.990Z,1034.0
2019-03-27T10:15:02.415Z,1034.01
2019-03-27T10:20:03.968Z,1034.04
2019-03-27T10:25:02.779Z,1034.13
2019-03-27T10:30:03.128Z,1034.03
2019-03-27T10:35:02.449Z,1034.08
2019-03-27T10:40:02.892Z,1034.07
2019-03-27T10:45:03.337Z,1033.99
2019-03-27T10:50:16.613Z,1034.02
2019-03-27T10:55:03.094Z,1034.13
2019-03-27T11:00:02.498Z,1034.11
2019-03-27T11:05:02.846Z,1034.14
2019-03-27T11:10:03.299Z,1034.08
2019-03-27T11:15:02.650Z,1034.06
2019-03-27T11:20:03.044Z,1034.07
2019-03-27T11:25:02.465Z,1034.1
2019-03-27T11:30:02.919Z,1034.1
2019-03-27T11:35:03.355Z,1034.08
2019-03-27T11:40:02.794Z,1034.07
2019-03-27T11:45:03.222Z,1033.98
2019-03-27T11:50:02.630Z,1033.87
2019-03-27T11:55:03.009Z,1033.86
2019-03-27T12:00:02.400Z,1033.79
2019-03-27T12:05:02.852Z,1033.8
2019-03-27T12:10:02.486Z,1033.8
2019-03-27T12:15:02.899Z,1033.68
2019-03-27T12:20:03.259Z,1033.69
2019-03-27T12:25:02.658Z,1033.62
2019-03-27T12:30:03.014Z,1033.65
2019-03-27T12:35:02.428Z,1033.69
2019-03-27T12:40:11.019Z,1033.6
2019-03-27T12:45:02.509Z,1033.56
2019-03-27T12:50:02.945Z,1033.63
2019-03-27T12:55:03.381Z,1033.53
2019-03-27T13:00:02.801Z,1033.58
2019-03-27T13:05:03.141Z,1033.49
2019-03-27T13:10:02.692Z,1033.42
2019-03-27T13:15:03.142Z,1033.44
2019-03-27T13:20:02.549Z,1033.41
2019-03-27T13:25:02.994Z,1033.38
2019-03-27T13:30:02.316Z,1033.46
2019-03-27T13:35:02.762Z,1033.35
2019-03-27T13:40:03.169Z,1033.36
2019-03-27T13:45:02.621Z,1033.45
2019-03-27T13:50:03.054Z,1033.48
2019-03-27T13:55:02.487Z,1033.44
2019-03-27T14:00:02.928Z,1033.4
2019-03-27T14:05:03.263Z,1033.32
2019-03-27T14:10:02.784Z,1033.26
2019-03-27T14:15:03.198Z,1033.28
2019-03-27T14:20:02.640Z,1033.27
2019-03-27T14:25:03.057Z,1033.34
2019-03-27T14:30:02.508Z,1033.3
2019-03-27T14:35:02.921Z,1033.31
2019-03-27T14:40:02.339Z,1033.22
2019-03-27T14:45:01.867Z,1033.19
2019-03-27T14:50:03.335Z,1033.22
2019-03-27T14:55:03.235Z,1033.24
2019-03-27T15:00:02.872Z,1033.25
2019-03-27T15:05:03.216Z,1033.24
2019-03-27T15:10:02.640Z,1033.26
2019-03-27T15:15:02.983Z,1033.32
2019-03-27T15:20:02.391Z,1033.32
2019-03-27T15:25:02.841Z,1033.28
2019-03-27T15:30:03.183Z,1033.26
2019-03-27T15:35:02.525Z,1033.33
2019-03-27T15:40:02.953Z,1033.37
2019-03-27T15:45:03.404Z,1033.39
2019-03-27T15:50:02.802Z,1033.33
2019-03-27T15:55:03.133Z,1033.36
2019-03-27T16:00:02.556Z,1033.29
2019-03-27T16:05:03.005Z,1033.32
2019-03-27T16:10:02.425Z,1033.25
2019-03-27T16:15:02.769Z,1033.23
2019-03-27T16:20:03.207Z,1033.25
2019-03-27T16:25:02.627Z,1033.25
2019-03-27T16:30:03.087Z,1033.28
2019-03-27T16:35:02.501Z,1033.25
2019-03-27T16:40:02.939Z,1033.33
2019-03-27T16:45:03.277Z,1033.33
2019-03-27T16:50:02.728Z,1033.29
2019-03-27T16:55:03.088Z,1033.31
2019-03-27T17:00:02.484Z,1033.34
2019-03-27T17:05:02.936Z,1033.28
2019-03-27T17:10:02.477Z,1033.37
2019-03-27T17:15:02.896Z,1033.33
2019-03-27T17:20:03.509Z,1033.42
2019-03-27T17:25:02.933Z,1033.37
2019-03-27T17:30:02.461Z,1033.39
2019-03-27T17:35:02.784Z,1033.37
2019-03-27T17:40:03.237Z,1033.44
2019-03-27T17:45:02.660Z,1033.5
2019-03-27T17:50:02.990Z,1033.49
2019-03-27T17:55:02.410Z,1033.52
2019-03-27T18:00:02.860Z,1033.62
2019-03-27T18:05:03.200Z,1033.68
2019-03-27T18:10:02.629Z,1033.77
2019-03-27T18:15:03.063Z,1033.75
2019-03-27T18:20:02.472Z,1033.75
2019-03-27T18:25:02.829Z,1033.82
2019-03-27T18:30:03.260Z,1033.81
2019-03-27T18:35:02.695Z,1033.87
2019-03-27T18:40:03.129Z,1033.94
2019-03-27T18:45:02.553Z,1034.01
2019-03-27T18:50:02.997Z,1033.99
2019-03-27T18:55:02.329Z,1034.02
2019-03-27T19:00:02.739Z,1034.03
2019-03-27T19:05:03.098Z,1034.09
2019-03-27T19:10:02.607Z,1034.09
2019-03-27T19:15:03.064Z,1034.16
2019-03-27T19:20:02.474Z,1034.19
2019-03-27T19:25:02.909Z,1034.17
2019-03-27T19:30:03.301Z,1034.14
2019-03-27T19:35:02.686Z,1034.17
2019-03-27T19:40:03.130Z,1034.2
2019-03-27T19:45:02.531Z,1034.29
2019-03-27T19:50:02.983Z,1034.37
2019-03-27T19:55:02.406Z,1034.39
2019-03-27T20:00:02.103Z,1034.37
2019-03-27T20:05:02.467Z,1034.41
2019-03-27T20:10:02.900Z,1034.45
2019-03-27T20:15:11.926Z,1034.46
2019-03-27T20:20:03.074Z,1034.5
2019-03-27T20:25:02.606Z,1034.61
2019-03-27T20:30:03.150Z,1034.7
2019-03-27T20:35:02.577Z,1034.63
2019-03-27T20:40:02.957Z,1034.61
2019-03-27T20:45:03.348Z,1034.54
2019-03-27T20:50:02.785Z,1034.62
2019-03-27T20:55:03.219Z,1034.64
2019-03-27T21:00:02.626Z,1034.58
2019-03-27T21:05:02.970Z,1034.65
2019-03-27T21:10:02.397Z,1034.66
2019-03-27T21:15:02.739Z,1034.68
2019-03-27T21:20:03.178Z,1034.64
2019-03-27T21:25:08.503Z,1034.63
2019-03-27T21:30:03.253Z,1034.66
2019-03-27T21:35:02.705Z,1034.63
2019-03-27T21:40:03.249Z,1034.65
2019-03-27T21:45:02.669Z,1034.69
2019-03-27T21:50:03.109Z,1034.84
2019-03-27T21:55:02.525Z,1034.73
2019-03-27T22:00:02.981Z,1034.77
2019-03-27T22:05:02.395Z,1034.76
2019-03-27T22:10:02.978Z,1034.75
2019-03-27T22:15:02.491Z,1034.84
2019-03-27T22:20:02.899Z,1034.89
2019-03-27T22:25:03.351Z,1034.82
2019-03-27T22:30:02.797Z,1034.8
2019-03-27T22:35:03.676Z,1034.84
2019-03-27T22:40:03.135Z,1034.89
2019-03-27T22:45:06.710Z,1034.87
2019-03-27T22:50:03.091Z,1034.87
2019-03-27T22:55:02.519Z,1034.94
2019-03-27T23:00:02.953Z,1034.83
2019-03-27T23:05:03.409Z,1034.83
2019-03-27T23:10:02.927Z,1034.78
2019-03-27T23:15:03.375Z,1034.83
2019-03-27T23:20:02.782Z,1034.85
2019-03-27T23:25:03.338Z,1034.82
2019-03-27T23:30:02.913Z,1034.8
2019-03-27T23:35:03.304Z,1034.77
2019-03-27T23:40:02.824Z,1034.86
2019-03-27T23:45:02.456Z,1034.95
2019-03-27T23:50:02.896Z,1034.94
2019-03-27T23:55:03.328Z,1034.95
